Terminal Aerodrome Forecast
Issued by NWS

Home | Current Version | Previous Version | Text Only | Print | Product List | Glossary On
Versions: 1 2 3 4 5 6 7 8 9 10 11 12 13 14 15 16 17 18 19 20 21 22
000
FTUS43 KGRB 161723
TAFMTW
TAF
KMTW 161723Z 1618/1718 03010KT P6SM OVC013
     FM170000 07007KT P6SM OVC015
     FM170800 09005KT P6SM SCT008 OVC015
      TEMPO 1710/1714 5SM -FZDZ BR BKN008
     FM171400 10007KT 6SM BR SCT009 OVC018
      TEMPO 1714/1718 4SM -DZ BR BKN009=

USA.gov is the U.S. government's official web portal to all federal, state and local government web resources and services.